Flight Track Log - Related Links

Times and Time Zones

All times are in EDT time to prevent confusion due to time zone crossing. See the N45NS flight status page for this flight to view local times or setup timezone preferences in your user account.

Time Position Orientation Groundspeed Altitude Reporting Facility
EDT Latitude Longitude Course Direction KTS MPH feet Rate Location/Type
Wed 12:37:45 PM 40.8600 -81.9347 235° Southwest 200 230 2,600  Level Cleveland Center
Wed 12:38:47 PM 40.7886 -81.9231 173° South 263 303 5,300 1,839 Climbing Cleveland Center
Wed 12:39:49 PM 40.7231 -81.9681 207° Southwest 269 310 6,400 1,920 Climbing Cleveland Center
Wed 12:40:52 PM 40.6658 -82.0347 221° Southwest 269 310 9,300 2,784 Climbing Cleveland Center
Wed 12:41:54 PM 40.6106 -82.1253 231° Southwest 266 306 12,200 2,661 Climbing Indianapolis Center
Wed 12:42:56 PM 40.5589 -82.2106 231° Southwest 290 334 14,800 2,371 Climbing Indianapolis Center
Wed 12:43:00 PM 40.4907 -82.6090 235° Southwest  Level Estimated
Wed 12:43:58 PM 40.5053 -82.2969 231° Southwest 300 345 17,100  Level Indianapolis Center
Wed 12:45:00 PM 40.4500 -82.3867 231° Southwest 309 356 19,000 2,081 Climbing Indianapolis Center
Wed 12:46:02 PM 40.3933 -82.4783 231° Southwest 317 365 21,400 2,081 Climbing Indianapolis Center
Wed 12:47:04 PM 40.3358 -82.5697 230° Southwest 322 371 23,300 1,645 Climbing Indianapolis Center
Wed 12:48:06 PM 40.2769 -82.6653 231° Southwest 332 382 24,800 1,597 Climbing Indianapolis Center
Wed 12:49:08 PM 40.2061 -82.7778 231° Southwest 343 395 26,600 1,887 Climbing Indianapolis Center
Wed 12:50:10 PM 40.1456 -82.8742 231° Southwest 343 395 28,700 1,839 Climbing Indianapolis Center
Wed 12:51:12 PM 40.0861 -82.9692 231° Southwest 339 390 30,400 1,597 Climbing Indianapolis Center
Wed 12:52:14 PM 40.0258 -83.0644 230° Southwest 341 392 32,000 1,742 Climbing Indianapolis Center
Wed 12:53:16 PM 39.9672 -83.1567 230° Southwest 334 384 34,000 1,742 Climbing Indianapolis Center
Wed 12:54:18 PM 39.9106 -83.2458 230° Southwest 323 372 35,600 1,452 Climbing Indianapolis Center
Wed 12:55:20 PM 39.8544 -83.3339 230° Southwest 316 364 37,000 1,355 Climbing Indianapolis Center
Wed 12:56:22 PM 39.7953 -83.4269 230° Southwest 309 356 38,400 1,210 Climbing Indianapolis Center
Wed 12:57:24 PM 39.7414 -83.5114 230° Southwest 304 350 39,500 774 Climbing Indianapolis Center
Wed 12:58:26 PM 39.6750 -83.6139 230° Southwest 311 358 40,000 242 Climbing Indianapolis Center
Wed 12:59:28 PM 39.6158 -83.7058 230° Southwest 323 372 40,000  Level Indianapolis Center
Wed 01:00:30 PM 39.5511 -83.8050 230° Southwest 348 400 40,000  Level Indianapolis Center
Wed 01:01:32 PM 39.4847 -83.9086 230° Southwest 368 423 40,000  Level Indianapolis Center
Wed 01:02:34 PM 39.4178 -84.0108 230° Southwest 373 429 40,000  Level Indianapolis Center
Wed 01:03:36 PM 39.3503 -84.1147 230° Southwest 377 434 40,000  Level Indianapolis Center
Wed 01:04:38 PM 39.2697 -84.2386 230° Southwest 377 434 40,000  Level Indianapolis Center
Wed 01:05:40 PM 39.2014 -84.3417 229° Southwest 378 435 40,000  Level Indianapolis Center
Wed 01:06:42 PM 39.1353 -84.4422 230° Southwest 371 427 40,000  Level Indianapolis Center
Wed 01:07:44 PM 39.0683 -84.5422 229° Southwest 370 426 40,000  Level Indianapolis Center
Wed 01:08:46 PM 39.0033 -84.6414 230° Southwest 365 420 40,000  Level Indianapolis Center
Wed 01:09:48 PM 38.9378 -84.7386 229° Southwest 361 415 40,000  Level Indianapolis Center
Wed 01:10:50 PM 38.8622 -84.8536 230° Southwest 358 412 40,000  Level Indianapolis Center
Wed 01:11:52 PM 38.7972 -84.9506 229° Southwest 358 412 40,000  Level Indianapolis Center
Wed 01:12:54 PM 38.7319 -85.0453 229° Southwest 357 411 40,000  Level Indianapolis Center
Wed 01:13:56 PM 38.6675 -85.1422 230° Southwest 357 411 40,000  Level Indianapolis Center
Wed 01:14:58 PM 38.5975 -85.2461 229° Southwest 356 410 40,000  Level Indianapolis Center
Wed 01:15:59 PM 38.5319 -85.3422 229° Southwest 357 411 40,000  Level Indianapolis Center
Wed 01:17:01 PM 38.4669 -85.4372 229° Southwest 356 410 40,000  Level Indianapolis Center
Wed 01:18:03 PM 38.4025 -85.5319 229° Southwest 352 405 40,000  Level Indianapolis Center
Wed 01:19:05 PM 38.3378 -85.6258 229° Southwest 352 405 40,000  Level Indianapolis Center
Wed 01:20:07 PM 38.2725 -85.7200 229° Southwest 353 406 40,000  Level Indianapolis Center
Wed 01:21:09 PM 38.1961 -85.8325 229° Southwest 349 402 40,000  Level Indianapolis Center
Wed 01:22:11 PM 38.1308 -85.9261 228° Southwest 351 404 40,000  Level Indianapolis Center
Wed 01:23:13 PM 38.0650 -86.0194 228° Southwest 352 405 40,000  Level Indianapolis Center
Wed 01:24:15 PM 38.0000 -86.1139 229° Southwest 353 406 40,000  Level Indianapolis Center
Wed 01:25:16 PM 37.9344 -86.2078 228° Southwest 354 407 40,000  Level Indianapolis Center
Wed 01:26:18 PM 37.8689 -86.3025 229° Southwest 355 409 40,000  Level Indianapolis Center
Wed 01:27:20 PM 37.8036 -86.3958 229° Southwest 355 409 40,000  Level Indianapolis Center
Wed 01:28:22 PM 37.7253 -86.5056 228° Southwest 357 411 40,000  Level Indianapolis Center
Wed 01:29:24 PM 37.6697 -86.5844 228° Southwest 355 409 40,000  Level Indianapolis Center
Wed 01:30:26 PM 37.5897 -86.6969 228° Southwest 356 410 40,000  Level Indianapolis Center
Wed 01:31:27 PM 37.5275 -86.7867 229° Southwest 354 407 40,000  Level Indianapolis Center
Wed 01:32:29 PM 37.4614 -86.8786 228° Southwest 352 405 40,000  Level Indianapolis Center
Wed 01:33:31 PM 37.3956 -86.9708 228° Southwest 352 405 40,000  Level Indianapolis Center
Wed 01:34:33 PM 37.3300 -87.0622 228° Southwest 350 403 40,000  Level Indianapolis Center
Wed 01:35:35 PM 37.2642 -87.1539 228° Southwest 351 404 40,000  Level Indianapolis Center
Wed 01:36:36 PM 37.1881 -87.2589 228° Southwest 347 399 40,000  Level Indianapolis Center
Wed 01:37:38 PM 37.1208 -87.3517 228° Southwest 353 406 40,000  Level Indianapolis Center
Wed 01:38:34 PM 37.0661 -87.4322 230° Southwest 353 406 40,000  Level Memphis Center
Wed 01:39:34 PM 36.9994 -87.5203 227° Southwest 353 406 40,000  Level Memphis Center
Wed 01:40:34 PM 36.9347 -87.6108 228° Southwest 353 406 40,000  Level Memphis Center
Wed 01:41:34 PM 36.8700 -87.7014 228° Southwest 353 406 40,000  Level Memphis Center
Wed 01:42:34 PM 36.8053 -87.7917 228° Southwest 353 406 40,000  Level Memphis Center
Wed 01:43:34 PM 36.7425 -87.8789 228° Southwest 353 406 40,000  Level Memphis Center
Wed 01:44:34 PM 36.6753 -87.9639 225° Southwest 348 400 40,000  Level Memphis Center
Wed 01:45:34 PM 36.6083 -88.0589 229° Southwest 342 394 40,000  Level Memphis Center
Wed 01:46:34 PM 36.5453 -88.1383 225° Southwest 331 381 40,000  Level Memphis Center
Wed 01:47:34 PM 36.4861 -88.2172 227° Southwest 326 375 40,000  Level Memphis Center
Wed 01:48:34 PM 36.4250 -88.2989 227° Southwest 326 375 40,000  Level Memphis Center
Wed 01:49:34 PM 36.3658 -88.3803 228° Southwest 326 375 40,000  Level Memphis Center
Wed 01:50:34 PM 36.3067 -88.4589 227° Southwest 326 375 40,000  Level Memphis Center
Wed 01:51:34 PM 36.2453 -88.5375 226° Southwest 326 375 40,000  Level Memphis Center
Wed 01:52:34 PM 36.1858 -88.6161 227° Southwest 326 375 40,000  Level Memphis Center
Wed 01:53:34 PM 36.1264 -88.6919 226° Southwest 326 375 40,000  Level Memphis Center
Wed 01:54:34 PM 36.0650 -88.7728 227° Southwest 326 375 40,000  Level Memphis Center
Wed 01:55:34 PM 36.0056 -88.8533 228° Southwest 326 375 40,000  Level Memphis Center
Wed 01:56:34 PM 35.9461 -88.9339 228° Southwest 326 375 40,000  Level Memphis Center
Wed 01:57:34 PM 35.8822 -89.0119 225° Southwest 326 375 40,000  Level Memphis Center
Wed 01:58:34 PM 35.8289 -89.0844 228° Southwest 326 375 40,000  Level Memphis Center
Wed 01:59:34 PM 35.7692 -89.1647 227° Southwest 326 375 40,000  Level Memphis Center
Wed 02:00:34 PM 35.7053 -89.2450 226° Southwest 326 375 40,000  Level Memphis Center
Wed 02:01:34 PM 35.6539 -89.3247 232° Southwest 313 360 40,000  Level Memphis Center
Wed 02:02:34 PM 35.5919 -89.4022 226° Southwest 318 366 40,000  Level Memphis Center
Wed 02:03:34 PM 35.5300 -89.4819 226° Southwest 318 366 40,000  Level Memphis Center
Wed 02:04:34 PM 35.4636 -89.5694 227° Southwest 318 366 40,000  Level Memphis Center
Wed 02:05:34 PM 35.4036 -89.6464 226° Southwest 318 366 40,000  Level Memphis Center
Wed 02:06:34 PM 35.3436 -89.7258 227° Southwest 318 366 40,000  Level Memphis Center
Wed 02:07:34 PM 35.2814 -89.8050 226° Southwest 318 366 40,000  Level Memphis Center
Wed 02:08:34 PM 35.2233 -89.8844 228° Southwest 318 366 40,000  Level Memphis Center
Wed 02:09:34 PM 35.1589 -89.9658 226° Southwest 318 366 40,000  Level Memphis Center
Wed 02:10:34 PM 35.0986 -90.0450 227° Southwest 318 366 40,000  Level Memphis Center
Wed 02:11:34 PM 35.0364 -90.1236 226° Southwest 318 366 40,000  Level Memphis Center
Wed 02:12:34 PM 34.9739 -90.2025 226° Southwest 318 366 40,000  Level Memphis Center
Wed 02:13:34 PM 34.9092 -90.2836 226° Southwest 323 372 40,000  Level Memphis Center
Wed 02:14:34 PM 34.8447 -90.3622 225° Southwest 323 372 40,000  Level Memphis Center
Wed 02:15:34 PM 34.7819 -90.4406 226° Southwest 328 377 40,000  Level Memphis Center
Wed 02:16:34 PM 34.7172 -90.5214 226° Southwest 328 377 40,000  Level Memphis Center
Wed 02:17:34 PM 34.6567 -90.5994 227° Southwest 328 377 40,000  Level Memphis Center
Wed 02:18:34 PM 34.5897 -90.6800 225° Southwest 328 377 40,000  Level Memphis Center
Wed 02:19:34 PM 34.5247 -90.7631 226° Southwest 328 377 40,000  Level Memphis Center
Wed 02:20:34 PM 34.4597 -90.8433 226° Southwest 333 383 40,000  Level Memphis Center
Wed 02:21:34 PM 34.3989 -90.9158 225° Southwest 339 390 40,000  Level Memphis Center
Wed 02:22:34 PM 34.3317 -91.0011 226° Southwest 339 390 40,000  Level Memphis Center
Wed 02:23:34 PM 34.2667 -91.0808 225° Southwest 345 397 40,000  Level Memphis Center
Wed 02:24:34 PM 34.2014 -91.1583 224° Southwest 338 389 40,000  Level Memphis Center
Wed 02:25:34 PM 34.1406 -91.2381 227° Southwest 333 383 40,000  Level Memphis Center
Wed 02:26:34 PM 34.0753 -91.3150 224° Southwest 328 377 40,000  Level Memphis Center
Wed 02:27:34 PM 34.0100 -91.3922 224° Southwest 323 372 40,000  Level Memphis Center
Wed 02:28:34 PM 33.9403 -91.4789 226° Southwest 328 377 40,000  Level Memphis Center
Wed 02:30:44 PM 33.8053 -91.6497 226° Southwest 331 381 40,000  Level Fort Worth Center
Wed 02:31:44 PM 33.7400 -91.7289 225° Southwest 338 389 40,000  Level Fort Worth Center
Wed 02:32:44 PM 33.6725 -91.8081 224° Southwest 338 389 40,000  Level Fort Worth Center
Wed 02:33:44 PM 33.6072 -91.8869 225° Southwest 344 396 40,000  Level Fort Worth Center
Wed 02:34:44 PM 33.5378 -91.9686 224° Southwest 344 396 40,000  Level Fort Worth Center
Wed 02:35:44 PM 33.4722 -92.0472 225° Southwest 344 396 40,000  Level Fort Worth Center
Wed 02:36:44 PM 33.4089 -92.1283 227° Southwest 344 396 40,000  Level Fort Worth Center
Wed 02:37:44 PM 33.3414 -92.2069 224° Southwest 344 396 40,000  Level Fort Worth Center
Wed 02:38:44 PM 33.2717 -92.2881 224° Southwest 344 396 40,000  Level Fort Worth Center
Wed 02:39:44 PM 33.2100 -92.3661 227° Southwest 344 396 40,000  Level Fort Worth Center
Wed 02:40:44 PM 33.1403 -92.4469 224° Southwest 344 396 40,000  Level Fort Worth Center
Wed 02:41:44 PM 33.0722 -92.5250 224° Southwest 344 396 40,000  Level Fort Worth Center
Wed 02:42:44 PM 33.0044 -92.6056 225° Southwest 344 396 40,000  Level Fort Worth Center
Wed 02:43:44 PM 32.9386 -92.6808 224° Southwest 344 396 40,000  Level Fort Worth Center
Wed 02:44:44 PM 32.8764 -92.7536 224° Southwest 344 396 40,000  Level Fort Worth Center
Wed 02:45:44 PM 32.8086 -92.8336 225° Southwest 344 396 40,000  Level Fort Worth Center
Wed 02:46:44 PM 32.7364 -92.9164 224° Southwest 344 396 40,000  Level Fort Worth Center
Wed 02:47:44 PM 32.6661 -92.9964 224° Southwest 344 396 40,000  Level Fort Worth Center
Wed 02:48:44 PM 32.6000 -93.0761 225° Southwest 349 402 40,000  Level Fort Worth Center
Wed 02:49:44 PM 32.5256 -93.1608 224° Southwest 349 402 40,000  Level Fort Worth Center
Wed 02:50:44 PM 32.4575 -93.2403 225° Southwest 349 402 40,000  Level Fort Worth Center
Wed 02:51:44 PM 32.3850 -93.3250 225° Southwest 354 407 40,000  Level Fort Worth Center
Wed 02:52:44 PM 32.3144 -93.4042 223° Southwest 354 407 40,000  Level Fort Worth Center
Wed 02:53:44 PM 32.2400 -93.4911 225° Southwest 359 413 40,000  Level Fort Worth Center
Wed 02:54:44 PM 32.1714 -93.5700 224° Southwest 364 419 40,000  Level Fort Worth Center
Wed 02:55:28 PM 32.1108 -93.6450 226° Southwest 362 417 40,000  Level Houston Center
Wed 02:56:30 PM 32.0397 -93.7269 224° Southwest 359 413 40,000  Level Houston Center
Wed 02:57:32 PM 31.9681 -93.8072 224° Southwest 356 410 40,000  Level Houston Center
Wed 02:58:34 PM 31.8969 -93.8889 224° Southwest 359 413 40,000  Level Houston Center
Wed 02:59:36 PM 31.8242 -93.9728 224° Southwest 364 419 40,000  Level Houston Center
Wed 03:00:38 PM 31.7500 -94.0564 224° Southwest 364 419 40,000  Level Houston Center
Wed 03:01:41 PM 31.6628 -94.1558 224° Southwest 362 417 40,000  Level Houston Center
Wed 03:02:43 PM 31.5892 -94.2386 224° Southwest 365 420 40,000  Level Houston Center
Wed 03:03:45 PM 31.5161 -94.3211 224° Southwest 365 420 40,000  Level Houston Center
Wed 03:04:47 PM 31.4419 -94.4042 224° Southwest 367 422 40,000  Level Houston Center
Wed 03:05:49 PM 31.3681 -94.4875 224° Southwest 369 425 40,000  Level Houston Center
Wed 03:06:51 PM 31.2922 -94.5711 223° Southwest 372 428 40,000  Level Houston Center
Wed 03:07:54 PM 31.2111 -94.6644 225° Southwest 373 429 40,000  Level Houston Center
Wed 03:08:56 PM 31.1403 -94.7497 226° Southwest 367 422 40,000  Level Houston Center
Wed 03:09:58 PM 31.0678 -94.8650 234° Southwest 370 426 40,000  Level Houston Center
Wed 03:11:00 PM 31.0067 -94.9600 233° Southwest 366 421 40,000  Level Houston Center
Wed 03:12:02 PM 30.9461 -95.0556 234° Southwest 367 422 40,000  Level Houston Center
Wed 03:13:04 PM 30.8794 -95.1447 229° Southwest 365 420 40,000  Level Houston Center
Wed 03:14:06 PM 30.8131 -95.2350 229° Southwest 366 421 40,000  Level Houston Center
Wed 03:15:09 PM 30.7464 -95.3244 229° Southwest 364 419 40,000  Level Houston Center
Wed 03:16:11 PM 30.6683 -95.4303 229° Southwest 359 413 40,000  Level Houston Center
Wed 03:17:13 PM 30.6089 -95.5083 229° Southwest 362 417 40,000  Level Houston Center
Wed 03:18:15 PM 30.5389 -95.5900 225° Southwest 361 415 40,000  Level Houston Center
Wed 03:19:17 PM 30.4525 -95.6808 222° Southwest 352 405 40,000  Level Houston Center
Wed 03:20:19 PM 30.3892 -95.7719 231° Southwest 362 417 40,000  Level Houston Center
Wed 03:21:22 PM 30.3239 -95.8628 230° Southwest 367 422 40,000  Level Houston Center
Wed 03:22:24 PM 30.2586 -95.9525 230° Southwest 366 421 40,000  Level Houston Center
Wed 03:23:26 PM 30.1872 -96.0517 230° Southwest 358 412 40,000  Level Houston Center
Wed 03:24:28 PM 30.1339 -96.1481 237° Southwest 363 418 40,000  Level Houston Center
Wed 03:25:30 PM 30.1211 -96.2614 263° West 356 410 40,000 -48 Level Houston Center
Wed 03:26:32 PM 30.1069 -96.3750 262° West 356 410 39,900 -864 Descending Houston Center
Wed 03:27:35 PM 30.0900 -96.4847 260° West 352 405 38,200 -1,920 Descending Houston Center
Wed 03:28:37 PM 30.0722 -96.6175 261° West 352 405 35,900 -2,032 Descending Houston Center
Wed 03:29:39 PM 30.0578 -96.7264 261° West 347 399 34,000 -1,887 Descending Houston Center
Wed 03:30:41 PM 30.0425 -96.8367 261° West 350 403 32,000 -1,887 Descending Houston Center
Wed 03:31:43 PM 30.0272 -96.9497 261° West 356 410 30,100 -2,032 Descending Houston Center
Wed 03:32:45 PM 30.0092 -97.0703 260° West 378 435 27,800 -2,516 Descending Houston Center
Wed 03:33:47 PM 29.9894 -97.2175 261° West 388 447 24,900 -2,544 Descending Houston Center
Wed 03:34:50 PM 29.9722 -97.3389 261° West 386 444 22,500 -2,118 Descending Houston Center
Wed 03:35:46 PM 29.9597 -97.4317 261° West 376 433 20,700 -2,129 Descending Houston Center
Wed 03:35:52 PM 29.9558 -97.4564 260° West 373 429 20,300 -2,328 Descending Houston Center
Wed 03:36:53 PM 29.9397 -97.5694 261° West 361 415 18,100 -2,419 Descending Houston Center
Wed 03:36:54 PM 29.9367 -97.5861 258° West 359 413 17,800 -2,300 Descending Houston Center
Wed 03:37:53 PM 29.9219 -97.6875 261° West 352 405 15,800 -2,032 Descending Houston Center
Wed 03:37:56 PM 29.9214 -97.6967 266° West 350 403 15,700 -2,262 Descending Houston Center
Wed 03:38:54 PM 29.9058 -97.8053 261° West 345 397 13,500 -2,129 Descending Houston Center
Wed 03:38:58 PM 29.9042 -97.8058 196° South 348 400 13,500 -1,082 Level Houston Center
Wed 03:39:55 PM 29.8800 -97.9075 255° West 327 376 12,400 -1,161 Descending Houston Center
Wed 03:40:00 PM 29.8767 -97.9144 241° Southwest 319 367 12,300 -1,869 Descending Houston Center
Wed 03:40:56 PM 29.8436 -97.9892 243° Southwest 273 314 10,500 -1,905 Descending Houston Center
Wed 03:41:03 PM 29.8403 -97.9964 242° Southwest 283 326 10,300 -1,967 Descending Houston Center
Wed 03:41:57 PM 29.8111 -98.0656 244° Southwest 253 291 8,500 -2,032 Descending Houston Center
Wed 03:42:05 PM 29.8069 -98.0772 248° West 261 300 8,200 -1,240 Descending Houston Center
Wed 03:43:58 PM 29.7756 -98.2239 256° West 259 298 6,000 -1,065 Descending Houston Center
Wed 03:44:09 PM 29.7703 -98.2417 251° West 258 297 6,000 -689 Level Houston Center
Wed 03:44:59 PM 29.7561 -98.3083 256° West 257 296 5,300 -871 Descending Houston Center
Wed 03:45:11 PM 29.7531 -98.3203 254° West 255 293 5,100 -295 Descending Houston Center
Wed 03:46:00 PM 29.7383 -98.3875 256° West 257 296 5,000 -97 Descending Houston Center
Wed 03:46:13 PM 29.7378 -98.4072 268° West 261 300 5,000 -1,440 Level Houston Center
Wed 03:47:15 PM 29.7281 -98.4808 261° West 240 276 3,200 -1,111 Descending Houston Center
Wed 03:48:01 PM 29.6869 -98.5139 215° Southwest 228 262 3,000 -194 Descending Houston Center
Wed 03:48:17 PM 29.6706 -98.5244 209° Southwest 231 266 3,000 -197 Level Houston Center
Wed 03:49:02 PM 29.6292 -98.5497 208° Southwest 215 247 2,800 -190 Descending Houston Center
Wed 03:49:20 PM 29.6167 -98.5531 193° South 220 253 2,800 -689 Level Houston Center
Wed 03:50:03 PM 29.5819 -98.5383 160° South 177 204 2,100 -968 Descending Houston Center
Wed 03:50:22 PM 29.5742 -98.5258 126° Southeast 170 196 1,800 -787 Descending Houston Center
Wed 03:51:04 PM 29.5558 -98.5031 133° Southeast 127 146 1,300 -677 Descending Houston Center
Wed 03:51:24 PM 29.5503 -98.4933 123° Southeast 140 161 1,100 -600 Descending Houston Center
Wed 03:53:00 PM 29.5340 -98.4691 215° Southwest  Level Estimated
Wed 04:00:00 PM 29.5333 -98.4667 16° North  Level FlightAware Approximate
Wed 04:01:00 PM 29.5340 -98.4691 16° North  Level Estimated

Login

Don't have an account? Register now (free) for customized features, flight alerts, and more!